createdAt,value
2018-05-10T00:02:19.082Z,60.30
2018-05-10T00:04:47.315Z,56.60
2018-05-10T00:07:16.415Z,56.90
2018-05-10T00:09:44.664Z,56.90
2018-05-10T00:12:12.917Z,56.90
2018-05-10T00:14:42.129Z,56.40
2018-05-10T00:17:10.376Z,58.20
2018-05-10T00:19:38.615Z,56.10
2018-05-10T00:22:07.171Z,56.90
2018-05-10T00:24:35.408Z,56.00
2018-05-10T00:27:03.657Z,59.50
2018-05-10T00:29:32.996Z,58.10
2018-05-10T00:32:01.245Z,58.10
2018-05-10T00:34:29.488Z,61.30
2018-05-10T00:36:57.767Z,59.40
2018-05-10T00:39:26.004Z,63.20
2018-05-10T00:41:54.245Z,64.80
2018-05-10T00:44:23.283Z,61.10
2018-05-10T00:46:51.538Z,61.00
2018-05-10T00:49:19.800Z,59.80
2018-05-10T00:51:49.644Z,57.70
2018-05-10T00:54:29.735Z,57.70
2018-05-10T00:56:58.772Z,63.60
2018-05-10T00:59:27.023Z,63.50
2018-05-10T01:01:56.024Z,63.70
2018-05-10T01:04:25.054Z,62.70
2018-05-10T01:06:55.512Z,62.60
2018-05-10T01:09:23.762Z,59.50
2018-05-10T01:11:52.091Z,64.30
2018-05-10T01:14:20.345Z,67.70
2018-05-10T01:16:48.648Z,65.40
2018-05-10T01:19:16.911Z,65.60
2018-05-10T01:21:45.161Z,65.70
2018-05-10T01:24:13.399Z,63.20
2018-05-10T01:26:41.675Z,68.60
2018-05-10T01:29:09.912Z,69.40
2018-05-10T01:31:38.981Z,67.80
2018-05-10T01:34:07.448Z,67.70
2018-05-10T01:36:36.460Z,64.20
2018-05-10T01:39:05.587Z,64.10
2018-05-10T01:41:33.936Z,68.40
2018-05-10T01:44:03.164Z,67.70
2018-05-10T01:46:31.410Z,69.10
2018-05-10T01:48:59.686Z,64.70
2018-05-10T01:51:27.935Z,63.40
2018-05-10T01:53:56.408Z,67.10
2018-05-10T01:56:25.028Z,66.70
2018-05-10T01:58:53.348Z,70.40
2018-05-10T02:01:22.360Z,68.10
2018-05-10T02:03:50.632Z,68.10
2018-05-10T02:06:19.140Z,65.40
2018-05-10T02:08:47.404Z,65.80
2018-05-10T02:11:15.675Z,66.30
2018-05-10T02:13:43.932Z,70.00
2018-05-10T02:16:12.960Z,71.30
2018-05-10T02:18:41.508Z,70.50
2018-05-10T02:21:09.807Z,71.20
2018-05-10T02:23:38.065Z,67.50
2018-05-10T02:26:07.095Z,66.90
2018-05-10T02:28:35.352Z,66.90
2018-05-10T02:31:03.607Z,70.50
2018-05-10T02:33:32.232Z,69.20
2018-05-10T02:36:00.496Z,74.00
2018-05-10T02:38:28.737Z,73.00
2018-05-10T02:40:57.385Z,74.20
2018-05-10T02:43:25.708Z,70.70
2018-05-10T02:45:54.732Z,69.60
2018-05-10T02:48:23.004Z,69.60
2018-05-10T02:50:51.254Z,67.20
2018-05-10T02:53:19.492Z,68.10
2018-05-10T02:55:47.915Z,71.00
2018-05-10T02:58:16.932Z,67.20
2018-05-10T03:00:45.184Z,67.10
2018-05-10T03:03:13.704Z,66.80
2018-05-10T03:05:41.964Z,67.50
2018-05-10T03:08:10.213Z,69.20
2018-05-10T03:10:38.491Z,74.40
2018-05-10T03:13:07.500Z,72.40
2018-05-10T03:15:35.743Z,72.20
2018-05-10T03:18:05.521Z,74.20
2018-05-10T03:20:33.771Z,74.20
2018-05-10T03:23:02.367Z,76.40
2018-05-10T03:25:30.957Z,72.10
2018-05-10T03:27:59.205Z,70.60
2018-05-10T03:30:27.452Z,77.30
2018-05-10T03:32:55.735Z,75.00
2018-05-10T03:35:24.748Z,78.40
2018-05-10T03:37:52.995Z,78.20
2018-05-10T03:40:22.211Z,77.40
2018-05-10T03:42:51.288Z,76.20
2018-05-10T03:45:20.507Z,76.20
2018-05-10T03:47:49.208Z,79.00
2018-05-10T03:50:19.283Z,77.40
2018-05-10T03:52:47.532Z,79.00
2018-05-10T03:55:15.804Z,81.60
2018-05-10T03:57:44.451Z,78.30
2018-05-10T04:00:13.469Z,75.60
2018-05-10T04:02:48.313Z,75.60
2018-05-10T04:05:28.403Z,77.50
2018-05-10T04:08:09.037Z,75.70
2018-05-10T04:10:49.035Z,77.30
2018-05-10T04:13:17.312Z,79.00
2018-05-10T04:15:46.324Z,81.10
2018-05-10T04:18:14.580Z,81.00
2018-05-10T04:20:42.857Z,79.20
2018-05-10T04:23:11.458Z,76.00
2018-05-10T04:25:40.459Z,75.60
2018-05-10T04:28:08.924Z,76.30
2018-05-10T04:30:39.078Z,76.70
2018-05-10T04:33:07.304Z,76.50
2018-05-10T04:35:35.582Z,75.20
2018-05-10T04:38:03.820Z,77.60
2018-05-10T04:40:33.188Z,76.70
2018-05-10T04:43:01.452Z,74.50
2018-05-10T04:45:29.704Z,76.00
2018-05-10T04:47:57.957Z,74.80
2018-05-10T04:50:26.280Z,75.40
2018-05-10T04:52:54.528Z,75.70
2018-05-10T04:55:22.784Z,79.10
2018-05-10T04:57:51.966Z,78.10
2018-05-10T05:00:20.216Z,76.60
2018-05-10T05:02:48.468Z,76.10
2018-05-10T05:05:16.735Z,75.10
2018-05-10T05:07:44.992Z,74.80
2018-05-10T05:10:14.304Z,77.20
2018-05-10T05:12:42.788Z,74.80
2018-05-10T05:15:11.044Z,81.30
2018-05-10T05:17:39.311Z,83.40
2018-05-10T05:20:08.343Z,77.10
2018-05-10T05:22:36.601Z,77.00
2018-05-10T05:25:04.921Z,82.70
2018-05-10T05:27:33.129Z,79.60
2018-05-10T05:30:02.247Z,79.40
2018-05-10T05:32:30.507Z,77.10
2018-05-10T05:34:58.903Z,78.10
2018-05-10T05:37:27.152Z,79.90
2018-05-10T05:39:55.404Z,79.30
2018-05-10T05:42:24.448Z,83.20
2018-05-10T05:44:52.700Z,83.30
2018-05-10T05:47:20.955Z,82.10
2018-05-10T05:49:49.232Z,81.40
2018-05-10T05:52:17.481Z,79.80
2018-05-10T05:54:45.741Z,79.60
2018-05-10T05:57:14.304Z,85.00
2018-05-10T05:59:42.653Z,84.40
2018-05-10T06:02:11.675Z,81.40
2018-05-10T06:04:39.939Z,81.40
2018-05-10T06:07:08.198Z,82.80
2018-05-10T06:09:36.444Z,81.20
2018-05-10T06:12:04.716Z,80.10
2018-05-10T06:14:32.967Z,76.90
2018-05-10T06:17:01.221Z,77.50
2018-05-10T06:19:29.717Z,77.60
2018-05-10T06:21:58.017Z,76.30
2018-05-10T06:24:26.257Z,75.40
2018-05-10T06:26:54.540Z,75.70
2018-05-10T06:29:22.783Z,75.80
2018-05-10T06:31:51.035Z,75.10
2018-05-10T06:34:19.312Z,75.00
2018-05-10T06:36:47.560Z,74.20
2018-05-10T06:39:15.816Z,74.60
2018-05-10T06:41:44.145Z,73.70
2018-05-10T06:44:12.851Z,74.00
2018-05-10T06:46:41.869Z,74.90
2018-05-10T06:49:10.144Z,74.90
2018-05-10T06:51:38.401Z,74.50
2018-05-10T06:54:06.651Z,73.90
2018-05-10T06:56:34.924Z,72.70
2018-05-10T06:59:03.176Z,73.90
2018-05-10T07:01:32.125Z,75.00
2018-05-10T07:04:01.548Z,76.70
2018-05-10T07:06:29.804Z,76.80
2018-05-10T07:08:58.828Z,74.70
2018-05-10T07:11:27.107Z,74.50
2018-05-10T07:13:55.356Z,75.30
2018-05-10T07:16:23.617Z,75.20
2018-05-10T07:18:52.656Z,75.70
2018-05-10T07:21:20.907Z,75.70
2018-05-10T07:23:49.173Z,75.10
2018-05-10T07:26:17.804Z,76.10
2018-05-10T07:28:46.052Z,76.50
2018-05-10T07:31:14.311Z,76.50
2018-05-10T07:33:42.594Z,74.60
2018-05-10T07:36:11.609Z,74.60
2018-05-10T07:38:39.863Z,74.60
2018-05-10T07:41:08.140Z,73.60
2018-05-10T07:43:36.474Z,74.60
2018-05-10T07:46:04.916Z,77.10
2018-05-10T07:48:33.268Z,76.50
2018-05-10T07:51:01.711Z,75.70
2018-05-10T07:53:29.983Z,75.10
2018-05-10T07:55:58.261Z,76.70
2018-05-10T07:58:26.503Z,73.90
2018-05-10T08:00:54.831Z,73.50
2018-05-10T08:03:24.954Z,77.40
2018-05-10T08:05:53.203Z,77.40
2018-05-10T08:08:22.275Z,77.10
2018-05-10T08:10:50.785Z,76.60
2018-05-10T08:13:19.026Z,74.70
2018-05-10T08:15:47.263Z,75.00
2018-05-10T08:18:16.305Z,73.80
2018-05-10T08:20:44.556Z,73.70
2018-05-10T08:23:14.368Z,72.10
2018-05-10T08:25:42.640Z,72.00
2018-05-10T08:28:10.880Z,70.60
2018-05-10T08:30:39.135Z,70.60
2018-05-10T08:33:07.797Z,70.70
2018-05-10T08:35:36.046Z,70.70
2018-05-10T08:38:05.317Z,71.20
2018-05-10T08:40:33.583Z,70.20
2018-05-10T08:43:01.831Z,71.40
2018-05-10T08:45:30.111Z,71.00
2018-05-10T08:47:58.417Z,69.90
2018-05-10T08:50:26.656Z,69.20
2018-05-10T08:52:54.896Z,68.30
2018-05-10T08:55:24.994Z,68.10
2018-05-10T08:57:53.231Z,68.10
2018-05-10T09:00:21.480Z,67.50
2018-05-10T09:02:49.753Z,67.60
2018-05-10T09:05:18.456Z,67.50
2018-05-10T09:07:47.482Z,66.00
2018-05-10T09:10:15.752Z,65.70
2018-05-10T09:12:43.997Z,65.90
2018-05-10T09:15:12.250Z,65.50
2018-05-10T09:17:40.628Z,66.50
2018-05-10T09:20:08.876Z,65.50
2018-05-10T09:22:38.122Z,65.10
2018-05-10T09:25:06.388Z,65.60
2018-05-10T09:27:34.627Z,65.40
2018-05-10T09:30:02.892Z,64.60
2018-05-10T09:32:31.165Z,63.90
2018-05-10T09:34:59.583Z,63.30
2018-05-10T09:37:28.181Z,62.60
2018-05-10T09:39:56.480Z,62.10
2018-05-10T09:42:24.724Z,61.10
2018-05-10T09:44:53.123Z,62.40
2018-05-10T09:47:21.527Z,62.10
2018-05-10T09:49:49.798Z,61.40
2018-05-10T09:52:18.130Z,58.80
2018-05-10T09:54:46.380Z,55.20
2018-05-10T09:57:14.623Z,54.90
2018-05-10T09:59:42.852Z,53.10
2018-05-10T10:02:11.548Z,53.00
2018-05-10T10:04:39.825Z,52.40
2018-05-10T10:07:09.665Z,53.50
2018-05-10T10:09:37.948Z,52.20
2018-05-10T10:12:06.192Z,52.00
2018-05-10T10:14:34.436Z,50.80
2018-05-10T10:17:02.703Z,49.80
2018-05-10T10:19:31.021Z,50.50
2018-05-10T10:21:59.260Z,51.70
2018-05-10T10:24:28.164Z,52.10
2018-05-10T10:26:56.412Z,52.40
2018-05-10T10:29:24.655Z,52.80
2018-05-10T10:31:52.927Z,53.00
2018-05-10T10:34:21.189Z,52.50
2018-05-10T10:36:49.400Z,52.30
2018-05-10T10:39:18.432Z,51.90
2018-05-10T10:41:46.731Z,51.80
2018-05-10T10:44:14.967Z,52.20
2018-05-10T10:46:43.575Z,51.70
2018-05-10T10:49:12.072Z,51.50
2018-05-10T10:51:40.292Z,51.80
2018-05-10T10:54:09.320Z,51.20
2018-05-10T10:56:37.555Z,51.20
2018-05-10T10:59:05.804Z,50.80
2018-05-10T11:01:34.085Z,49.00
2018-05-10T11:04:02.325Z,48.80
2018-05-10T11:06:30.575Z,48.60
2018-05-10T11:09:00.268Z,47.80
2018-05-10T11:11:28.509Z,47.60
2018-05-10T11:13:56.749Z,48.00
2018-05-10T11:16:25.021Z,47.20
2018-05-10T11:18:53.303Z,47.90
2018-05-10T11:21:21.717Z,46.20
2018-05-10T11:23:50.040Z,43.90
2018-05-10T11:26:18.294Z,44.30
2018-05-10T11:28:46.604Z,45.70
2018-05-10T11:31:16.106Z,46.10
2018-05-10T11:33:44.348Z,46.10
2018-05-10T11:36:12.643Z,47.60
2018-05-10T11:38:40.896Z,49.90
2018-05-10T11:41:09.296Z,50.80
2018-05-10T11:43:37.522Z,52.40
2018-05-10T11:46:05.811Z,54.00
2018-05-10T11:48:36.123Z,55.30
2018-05-10T11:51:04.284Z,56.00
2018-05-10T11:53:32.694Z,56.80
2018-05-10T11:56:00.929Z,57.50
2018-05-10T11:58:29.457Z,58.70
2018-05-10T12:00:57.708Z,60.90
2018-05-10T12:03:25.948Z,67.20
2018-05-10T12:05:54.385Z,73.70
2018-05-10T12:08:22.983Z,79.20
2018-05-10T12:10:51.249Z,91.40
2018-05-10T12:13:19.541Z,91.50
2018-05-10T12:15:47.877Z,91.30
2018-05-10T12:18:16.167Z,91.30
2018-05-10T12:20:44.419Z,91.60
2018-05-10T12:23:12.728Z,92.80
2018-05-10T12:25:41.818Z,93.20
2018-05-10T12:28:10.075Z,93.80
2018-05-10T12:30:38.688Z,92.00
2018-05-10T12:33:06.929Z,89.70
2018-05-10T12:35:35.208Z,87.80
2018-05-10T12:38:03.704Z,85.20
2018-05-10T12:40:31.968Z,81.50
2018-05-10T12:43:00.256Z,79.20
2018-05-10T12:45:28.524Z,77.30
2018-05-10T12:47:56.832Z,73.20
2018-05-10T12:50:25.080Z,74.70
2018-05-10T12:52:53.356Z,72.80
2018-05-10T12:55:21.779Z,66.90
2018-05-10T12:57:50.051Z,67.70
2018-05-10T13:00:18.525Z,62.30
2018-05-10T13:02:47.783Z,61.40
2018-05-10T13:05:20.774Z,58.20
2018-05-10T13:07:49.106Z,58.10
2018-05-10T13:10:17.479Z,54.70
2018-05-10T13:12:46.253Z,56.50
2018-05-10T13:15:14.684Z,56.00
2018-05-10T13:17:42.940Z,56.10
2018-05-10T13:20:12.764Z,54.50
2018-05-10T13:22:41.219Z,54.00
2018-05-10T13:25:09.505Z,54.70
2018-05-10T13:27:38.005Z,51.20
2018-05-10T13:30:07.032Z,52.60
2018-05-10T13:32:35.412Z,52.60
2018-05-10T13:35:03.688Z,54.90
2018-05-10T13:37:32.111Z,56.40
2018-05-10T13:40:00.823Z,57.90
2018-05-10T13:42:30.163Z,57.30
2018-05-10T13:44:59.336Z,57.30
2018-05-10T13:47:27.877Z,57.00
2018-05-10T13:49:56.850Z,54.30
2018-05-10T13:52:25.344Z,54.30
2018-05-10T13:54:53.588Z,52.20
2018-05-10T13:57:22.101Z,53.00
2018-05-10T13:59:51.713Z,54.80
2018-05-10T14:02:20.827Z,56.80
2018-05-10T14:04:49.876Z,57.50
2018-05-10T14:07:18.127Z,58.20
2018-05-10T14:09:46.416Z,58.30
2018-05-10T14:12:15.304Z,56.40
2018-05-10T14:14:43.633Z,55.60
2018-05-10T14:17:11.880Z,54.60
2018-05-10T14:19:40.156Z,55.70
2018-05-10T14:22:08.579Z,53.30
2018-05-10T14:24:37.776Z,53.10
2018-05-10T14:27:06.231Z,53.00
2018-05-10T14:29:34.479Z,50.90
2018-05-10T14:32:04.751Z,49.30
2018-05-10T14:34:33.148Z,46.60
2018-05-10T14:37:03.234Z,44.70
2018-05-10T14:39:32.299Z,44.70
2018-05-10T14:42:00.766Z,43.30
2018-05-10T14:44:29.123Z,42.80
2018-05-10T14:46:58.668Z,42.60
2018-05-10T14:49:27.012Z,42.60
2018-05-10T14:51:55.306Z,44.50
2018-05-10T14:54:24.943Z,44.30
2018-05-10T14:56:53.250Z,44.30
2018-05-10T14:59:21.504Z,45.50
2018-05-10T15:01:49.747Z,46.70
2018-05-10T15:04:18.024Z,47.60
2018-05-10T15:06:46.492Z,48.60
2018-05-10T15:09:15.504Z,49.30
2018-05-10T15:11:44.099Z,49.30
2018-05-10T15:14:12.548Z,50.30
2018-05-10T15:16:41.595Z,50.10
2018-05-10T15:19:09.864Z,50.80
2018-05-10T15:21:38.200Z,50.80
2018-05-10T15:24:07.208Z,51.30
2018-05-10T15:26:35.961Z,51.20
2018-05-10T15:29:04.196Z,51.70
2018-05-10T15:31:32.693Z,52.40
2018-05-10T15:34:02.283Z,52.90
2018-05-10T15:36:30.532Z,53.60
2018-05-10T15:38:58.779Z,51.70
2018-05-10T15:41:27.083Z,50.90
2018-05-10T15:43:55.343Z,51.60
2018-05-10T15:46:23.589Z,50.30
2018-05-10T15:48:52.801Z,49.70
2018-05-10T15:51:21.048Z,47.20
2018-05-10T15:53:49.292Z,47.30
2018-05-10T15:56:18.528Z,47.60
2018-05-10T15:58:46.933Z,48.90
2018-05-10T16:01:15.232Z,50.40
2018-05-10T16:03:46.776Z,51.30
2018-05-10T16:06:16.337Z,54.10
2018-05-10T16:08:44.744Z,54.10
2018-05-10T16:11:13.313Z,54.80
2018-05-10T16:13:41.549Z,55.60
2018-05-10T16:16:10.180Z,56.30
2018-05-10T16:18:39.567Z,56.70
2018-05-10T16:21:07.901Z,57.20
2018-05-10T16:23:36.997Z,58.10
2018-05-10T16:26:06.192Z,59.00
2018-05-10T16:28:35.849Z,58.70
2018-05-10T16:31:04.147Z,58.70
2018-05-10T16:33:33.284Z,59.70
2018-05-10T16:36:01.534Z,60.30
2018-05-10T16:38:31.560Z,60.10
2018-05-10T16:41:00.175Z,60.50
2018-05-10T16:43:28.465Z,60.20
2018-05-10T16:45:56.784Z,60.30
2018-05-10T16:48:26.622Z,61.30
2018-05-10T16:50:54.904Z,61.20
2018-05-10T16:53:23.170Z,61.50
2018-05-10T16:55:51.437Z,60.30
2018-05-10T16:58:19.715Z,60.40
2018-05-10T17:00:49.226Z,58.40
2018-05-10T17:03:18.059Z,58.30
2018-05-10T17:05:46.316Z,58.10
2018-05-10T17:08:14.568Z,58.50
2018-05-10T17:10:42.836Z,59.00
2018-05-10T17:13:13.052Z,58.10
2018-05-10T17:15:41.316Z,58.00
2018-05-10T17:18:09.580Z,58.30
2018-05-10T17:20:40.032Z,57.80
2018-05-10T17:23:08.312Z,57.20
2018-05-10T17:25:36.855Z,56.20
2018-05-10T17:28:05.107Z,54.90
2018-05-10T17:30:33.792Z,54.20
2018-05-10T17:33:02.249Z,52.60
2018-05-10T17:35:33.358Z,49.20
2018-05-10T17:38:01.588Z,49.10
2018-05-10T17:40:29.900Z,48.60
2018-05-10T17:42:58.245Z,48.40
2018-05-10T17:45:27.359Z,47.90
2018-05-10T17:47:55.857Z,47.80
2018-05-10T17:50:24.100Z,47.90
2018-05-10T17:52:53.916Z,47.70
2018-05-10T17:55:22.292Z,47.60
2018-05-10T17:57:50.435Z,47.30
2018-05-10T18:00:18.887Z,47.50
2018-05-10T18:02:47.147Z,47.70
2018-05-10T18:05:15.454Z,48.20
2018-05-10T18:07:44.331Z,48.60
2018-05-10T18:10:12.660Z,48.80
2018-05-10T18:12:40.897Z,49.60
2018-05-10T18:15:09.144Z,50.10
2018-05-10T18:17:37.988Z,50.60
2018-05-10T18:20:07.051Z,51.50
2018-05-10T18:22:36.303Z,51.30
2018-05-10T18:25:04.660Z,51.80
2018-05-10T18:27:33.892Z,53.50
2018-05-10T18:30:02.311Z,53.40
2018-05-10T18:32:30.656Z,53.70
2018-05-10T18:34:59.074Z,54.20
2018-05-10T18:37:27.443Z,54.60
2018-05-10T18:39:55.863Z,55.40
2018-05-10T18:42:24.883Z,56.00
2018-05-10T18:44:53.154Z,56.00
2018-05-10T18:47:21.616Z,56.30
2018-05-10T18:49:50.635Z,57.10
2018-05-10T18:52:18.955Z,57.10
2018-05-10T18:54:47.532Z,57.20
2018-05-10T18:57:15.716Z,57.30
2018-05-10T18:59:44.316Z,57.70
2018-05-10T19:02:12.811Z,58.20
2018-05-10T19:04:42.767Z,58.40
2018-05-10T19:07:13.252Z,58.30
2018-05-10T19:09:42.267Z,59.00
2018-05-10T19:12:10.559Z,58.80
2018-05-10T19:14:39.372Z,59.00
2018-05-10T19:17:07.615Z,59.10
2018-05-10T19:19:36.423Z,59.50
2018-05-10T19:22:04.772Z,59.40
2018-05-10T19:24:33.059Z,59.20
2018-05-10T19:27:01.343Z,59.30
2018-05-10T19:29:29.599Z,59.40
2018-05-10T19:31:59.243Z,59.70
2018-05-10T19:34:27.483Z,59.70
2018-05-10T19:36:56.000Z,60.00
2018-05-10T19:39:24.447Z,60.10
2018-05-10T19:41:52.693Z,60.60
2018-05-10T19:44:21.009Z,61.00
2018-05-10T19:46:49.260Z,61.00
2018-05-10T19:49:18.283Z,61.80
2018-05-10T19:51:46.554Z,61.70
2018-05-10T19:54:15.572Z,61.70
2018-05-10T19:56:43.930Z,61.70
2018-05-10T19:59:12.304Z,62.00
2018-05-10T20:01:40.852Z,62.40
2018-05-10T20:04:09.083Z,62.30
2018-05-10T20:06:37.540Z,62.80
2018-05-10T20:09:05.961Z,62.70
2018-05-10T20:11:34.209Z,63.10
2018-05-10T20:14:02.491Z,63.40
2018-05-10T20:16:30.807Z,63.50
2018-05-10T20:18:59.332Z,63.80
2018-05-10T20:21:28.979Z,64.60
2018-05-10T20:23:57.247Z,64.60
2018-05-10T20:26:25.491Z,65.40
2018-05-10T20:28:54.130Z,65.30
2018-05-10T20:31:22.632Z,65.80
2018-05-10T20:33:51.105Z,65.90
2018-05-10T20:36:19.384Z,66.10
2018-05-10T20:38:47.643Z,66.60
2018-05-10T20:41:18.088Z,66.80
2018-05-10T20:43:46.868Z,67.70
2018-05-10T20:46:15.892Z,67.70
2018-05-10T20:48:44.152Z,67.20
2018-05-10T20:51:12.556Z,66.70
2018-05-10T20:53:41.610Z,67.80
2018-05-10T20:56:09.856Z,67.80
2018-05-10T20:58:38.300Z,68.00
2018-05-10T21:01:07.329Z,68.50
2018-05-10T21:03:35.862Z,68.50
2018-05-10T21:06:04.416Z,68.50
2018-05-10T21:08:33.030Z,68.40
2018-05-10T21:11:01.286Z,68.50
2018-05-10T21:13:29.558Z,69.30
2018-05-10T21:15:57.852Z,70.00
2018-05-10T21:18:26.237Z,70.40
2018-05-10T21:20:54.510Z,70.40
2018-05-10T21:23:22.877Z,71.50
2018-05-10T21:25:51.118Z,71.80
2018-05-10T21:28:19.443Z,72.20
2018-05-10T21:30:47.696Z,72.30
2018-05-10T21:33:15.951Z,72.80
2018-05-10T21:35:44.227Z,73.10
2018-05-10T21:38:12.652Z,73.80
2018-05-10T21:40:40.912Z,73.60
2018-05-10T21:43:09.205Z,73.90
2018-05-10T21:45:37.463Z,73.90
2018-05-10T21:48:05.755Z,75.60
2018-05-10T21:50:34.687Z,76.50
2018-05-10T21:53:03.516Z,76.40
2018-05-10T21:55:32.563Z,77.70
2018-05-10T21:58:01.605Z,78.80
2018-05-10T22:00:29.869Z,78.90
2018-05-10T22:02:58.116Z,78.50
2018-05-10T22:05:26.397Z,78.60
2018-05-10T22:07:54.656Z,79.00
2018-05-10T22:10:22.912Z,80.60
2018-05-10T22:12:51.323Z,80.40
2018-05-10T22:15:19.592Z,81.20
2018-05-10T22:17:48.613Z,81.90
2018-05-10T22:20:17.004Z,81.80
2018-05-10T22:22:45.430Z,83.50
2018-05-10T22:25:13.992Z,82.10
2018-05-10T22:27:42.269Z,83.50
2018-05-10T22:30:10.613Z,82.30
2018-05-10T22:32:38.766Z,83.30
2018-05-10T22:35:07.376Z,83.70
2018-05-10T22:37:35.553Z,84.10
2018-05-10T22:40:03.815Z,83.70
2018-05-10T22:42:32.876Z,85.70
2018-05-10T22:45:01.356Z,84.40
2018-05-10T22:47:29.600Z,85.00
2018-05-10T22:49:59.104Z,85.70
2018-05-10T22:52:27.358Z,85.80
2018-05-10T22:54:55.606Z,85.80
2018-05-10T22:57:24.240Z,85.10
2018-05-10T22:59:52.532Z,86.30
2018-05-10T23:02:20.757Z,86.60
2018-05-10T23:04:49.031Z,86.80
2018-05-10T23:07:18.040Z,87.40
2018-05-10T23:09:46.371Z,87.40
2018-05-10T23:12:14.648Z,87.60
2018-05-10T23:14:42.848Z,87.10
2018-05-10T23:17:12.995Z,88.40
2018-05-10T23:19:41.487Z,88.50
2018-05-10T23:22:10.755Z,88.00
2018-05-10T23:24:39.781Z,88.70
2018-05-10T23:27:08.469Z,88.40
2018-05-10T23:29:36.793Z,89.00
2018-05-10T23:32:04.978Z,88.90
2018-05-10T23:34:33.258Z,89.50
2018-05-10T23:37:03.184Z,90.00
2018-05-10T23:39:31.436Z,89.90
2018-05-10T23:42:00.120Z,87.90
2018-05-10T23:44:28.376Z,89.60
2018-05-10T23:46:56.633Z,90.00
2018-05-10T23:49:24.927Z,90.00
2018-05-10T23:51:54.480Z,90.00
2018-05-10T23:54:22.714Z,90.10
2018-05-10T23:56:50.989Z,90.10
2018-05-10T23:59:19.235Z,90.00
